sensor_id;sensor_type;location;lat;lon;timestamp;P1;durP1;ratioP1;P2;durP2;ratioP2
26157;SDS011;67284;44.782;10.282;2023-08-24T00:00:15;8.50;;;6.57;;
26157;SDS011;67284;44.782;10.282;2023-08-24T00:05:07;7.53;;;6.50;;
26157;SDS011;67284;44.782;10.282;2023-08-24T00:09:59;8.05;;;6.60;;
26157;SDS011;67284;44.782;10.282;2023-08-24T00:14:51;8.95;;;8.15;;
26157;SDS011;67284;44.782;10.282;2023-08-24T00:19:42;10.00;;;7.07;;
26157;SDS011;67284;44.782;10.282;2023-08-24T00:24:34;8.80;;;7.07;;
26157;SDS011;67284;44.782;10.282;2023-08-24T00:29:26;9.90;;;6.72;;
26157;SDS011;67284;44.782;10.282;2023-08-24T00:34:18;10.60;;;7.20;;
26157;SDS011;67284;44.782;10.282;2023-08-24T00:39:10;8.80;;;7.40;;
26157;SDS011;67284;44.782;10.282;2023-08-24T00:44:03;9.18;;;6.72;;
26157;SDS011;67284;44.782;10.282;2023-08-24T00:48:55;9.55;;;8.02;;
26157;SDS011;67284;44.782;10.282;2023-08-24T00:53:48;8.65;;;7.38;;
26157;SDS011;67284;44.782;10.282;2023-08-24T00:58:40;10.23;;;7.60;;
26157;SDS011;67284;44.782;10.282;2023-08-24T01:03:33;11.23;;;7.40;;
26157;SDS011;67284;44.782;10.282;2023-08-24T01:08:25;8.10;;;7.30;;
26157;SDS011;67284;44.782;10.282;2023-08-24T01:13:20;25.23;;;10.50;;
26157;SDS011;67284;44.782;10.282;2023-08-24T01:18:17;29.63;;;11.20;;
26157;SDS011;67284;44.782;10.282;2023-08-24T01:28:12;21.42;;;9.18;;
26157;SDS011;67284;44.782;10.282;2023-08-24T01:33:05;12.85;;;8.98;;
26157;SDS011;67284;44.782;10.282;2023-08-24T01:37:57;13.85;;;8.40;;
26157;SDS011;67284;44.782;10.282;2023-08-24T01:43:01;9.30;;;8.23;;
26157;SDS011;67284;44.782;10.282;2023-08-24T01:47:57;9.43;;;7.72;;
26157;SDS011;67284;44.782;10.282;2023-08-24T01:52:58;10.30;;;8.60;;
26157;SDS011;67284;44.782;10.282;2023-08-24T01:57:50;9.35;;;8.32;;
26157;SDS011;67284;44.782;10.282;2023-08-24T02:02:43;11.45;;;8.40;;
26157;SDS011;67284;44.782;10.282;2023-08-24T02:07:36;10.95;;;8.88;;
26157;SDS011;67284;44.782;10.282;2023-08-24T02:12:27;10.50;;;8.27;;
26157;SDS011;67284;44.782;10.282;2023-08-24T02:17:19;9.73;;;8.48;;
26157;SDS011;67284;44.782;10.282;2023-08-24T02:22:11;11.20;;;8.32;;
26157;SDS011;67284;44.782;10.282;2023-08-24T02:27:03;8.77;;;7.88;;
26157;SDS011;67284;44.782;10.282;2023-08-24T02:31:55;8.73;;;7.82;;
26157;SDS011;67284;44.782;10.282;2023-08-24T02:36:47;10.52;;;7.78;;
26157;SDS011;67284;44.782;10.282;2023-08-24T02:41:39;9.18;;;7.35;;
26157;SDS011;67284;44.782;10.282;2023-08-24T02:46:31;9.10;;;7.38;;
26157;SDS011;67284;44.782;10.282;2023-08-24T02:51:23;9.82;;;7.43;;
26157;SDS011;67284;44.782;10.282;2023-08-24T02:56:15;9.02;;;6.55;;
26157;SDS011;67284;44.782;10.282;2023-08-24T03:01:07;10.57;;;7.05;;
26157;SDS011;67284;44.782;10.282;2023-08-24T03:06:00;8.35;;;6.88;;
26157;SDS011;67284;44.782;10.282;2023-08-24T03:10:53;7.40;;;6.70;;
26157;SDS011;67284;44.782;10.282;2023-08-24T03:15:45;8.02;;;7.03;;
26157;SDS011;67284;44.782;10.282;2023-08-24T03:20:37;7.50;;;6.80;;
26157;SDS011;67284;44.782;10.282;2023-08-24T03:25:29;8.48;;;7.35;;
26157;SDS011;67284;44.782;10.282;2023-08-24T03:30:21;10.77;;;7.97;;
26157;SDS011;67284;44.782;10.282;2023-08-24T03:35:14;8.23;;;6.97;;
26157;SDS011;67284;44.782;10.282;2023-08-24T03:40:07;10.88;;;7.22;;
26157;SDS011;67284;44.782;10.282;2023-08-24T03:44:59;8.32;;;7.15;;
26157;SDS011;67284;44.782;10.282;2023-08-24T03:49:51;8.55;;;7.28;;
26157;SDS011;67284;44.782;10.282;2023-08-24T03:54:43;10.52;;;8.13;;
26157;SDS011;67284;44.782;10.282;2023-08-24T03:59:35;8.98;;;7.80;;
26157;SDS011;67284;44.782;10.282;2023-08-24T04:04:27;10.50;;;7.53;;
26157;SDS011;67284;44.782;10.282;2023-08-24T04:09:19;8.65;;;7.35;;
26157;SDS011;67284;44.782;10.282;2023-08-24T04:14:11;8.23;;;7.43;;
26157;SDS011;67284;44.782;10.282;2023-08-24T04:19:05;10.68;;;7.57;;
26157;SDS011;67284;44.782;10.282;2023-08-24T04:23:57;10.75;;;7.53;;
26157;SDS011;67284;44.782;10.282;2023-08-24T04:28:49;8.45;;;7.50;;
26157;SDS011;67284;44.782;10.282;2023-08-24T04:33:41;9.52;;;8.15;;
26157;SDS011;67284;44.782;10.282;2023-08-24T04:38:33;12.98;;;8.40;;
26157;SDS011;67284;44.782;10.282;2023-08-24T04:43:25;19.52;;;9.43;;
26157;SDS011;67284;44.782;10.282;2023-08-24T04:48:16;15.45;;;9.30;;
26157;SDS011;67284;44.782;10.282;2023-08-24T04:53:08;14.90;;;8.52;;
26157;SDS011;67284;44.782;10.282;2023-08-24T04:58:00;21.98;;;8.80;;
26157;SDS011;67284;44.782;10.282;2023-08-24T05:02:52;19.20;;;8.77;;
26157;SDS011;67284;44.782;10.282;2023-08-24T05:07:44;23.73;;;8.93;;
26157;SDS011;67284;44.782;10.282;2023-08-24T05:12:36;22.35;;;9.10;;
26157;SDS011;67284;44.782;10.282;2023-08-24T05:17:28;29.60;;;9.48;;
26157;SDS011;67284;44.782;10.282;2023-08-24T05:22:20;19.60;;;8.80;;
26157;SDS011;67284;44.782;10.282;2023-08-24T05:27:12;17.48;;;9.00;;
26157;SDS011;67284;44.782;10.282;2023-08-24T05:32:04;16.10;;;8.77;;
26157;SDS011;67284;44.782;10.282;2023-08-24T05:36:56;17.20;;;8.70;;
26157;SDS011;67284;44.782;10.282;2023-08-24T05:41:51;11.52;;;8.20;;
26157;SDS011;67284;44.782;10.282;2023-08-24T05:46:44;18.80;;;8.45;;
26157;SDS011;67284;44.782;10.282;2023-08-24T05:51:36;9.23;;;7.03;;
26157;SDS011;67284;44.782;10.282;2023-08-24T05:56:28;9.85;;;8.60;;
26157;SDS011;67284;44.782;10.282;2023-08-24T06:01:20;10.07;;;8.55;;
26157;SDS011;67284;44.782;10.282;2023-08-24T06:06:12;11.63;;;9.02;;
26157;SDS011;67284;44.782;10.282;2023-08-24T06:11:04;14.85;;;8.73;;
26157;SDS011;67284;44.782;10.282;2023-08-24T06:15:55;11.57;;;8.85;;
26157;SDS011;67284;44.782;10.282;2023-08-24T06:20:47;12.05;;;9.13;;
26157;SDS011;67284;44.782;10.282;2023-08-24T06:25:42;9.77;;;8.07;;
26157;SDS011;67284;44.782;10.282;2023-08-24T06:30:38;10.18;;;7.40;;
26157;SDS011;67284;44.782;10.282;2023-08-24T06:35:31;10.65;;;7.53;;
26157;SDS011;67284;44.782;10.282;2023-08-24T06:40:24;11.50;;;7.50;;
26157;SDS011;67284;44.782;10.282;2023-08-24T06:45:16;10.30;;;6.57;;
26157;SDS011;67284;44.782;10.282;2023-08-24T06:50:10;10.73;;;7.20;;
26157;SDS011;67284;44.782;10.282;2023-08-24T06:55:02;7.57;;;6.78;;
26157;SDS011;67284;44.782;10.282;2023-08-24T06:59:55;9.52;;;7.38;;
26157;SDS011;67284;44.782;10.282;2023-08-24T07:04:47;11.63;;;7.22;;
26157;SDS011;67284;44.782;10.282;2023-08-24T07:09:39;12.23;;;7.50;;
26157;SDS011;67284;44.782;10.282;2023-08-24T07:14:31;7.75;;;6.95;;
26157;SDS011;67284;44.782;10.282;2023-08-24T07:19:23;10.93;;;7.40;;
26157;SDS011;67284;44.782;10.282;2023-08-24T07:24:16;9.68;;;7.20;;
26157;SDS011;67284;44.782;10.282;2023-08-24T07:29:25;10.32;;;7.78;;
26157;SDS011;67284;44.782;10.282;2023-08-24T07:34:17;11.18;;;7.57;;
26157;SDS011;67284;44.782;10.282;2023-08-24T07:39:09;9.07;;;8.15;;
26157;SDS011;67284;44.782;10.282;2023-08-24T07:44:01;17.98;;;9.00;;
26157;SDS011;67284;44.782;10.282;2023-08-24T07:48:53;16.00;;;8.48;;
26157;SDS011;67284;44.782;10.282;2023-08-24T07:53:45;10.82;;;8.15;;
26157;SDS011;67284;44.782;10.282;2023-08-24T07:58:38;12.95;;;8.40;;
26157;SDS011;67284;44.782;10.282;2023-08-24T08:03:31;26.23;;;11.13;;
26157;SDS011;67284;44.782;10.282;2023-08-24T08:08:22;13.98;;;8.60;;
26157;SDS011;67284;44.782;10.282;2023-08-24T08:13:14;12.52;;;9.23;;
26157;SDS011;67284;44.782;10.282;2023-08-24T08:18:06;13.45;;;8.55;;
26157;SDS011;67284;44.782;10.282;2023-08-24T08:22:58;12.50;;;9.10;;
26157;SDS011;67284;44.782;10.282;2023-08-24T08:27:50;9.23;;;8.32;;
26157;SDS011;67284;44.782;10.282;2023-08-24T08:32:42;15.90;;;8.18;;
26157;SDS011;67284;44.782;10.282;2023-08-24T08:37:34;12.40;;;8.68;;
26157;SDS011;67284;44.782;10.282;2023-08-24T08:42:29;12.70;;;8.18;;
26157;SDS011;67284;44.782;10.282;2023-08-24T08:47:20;10.55;;;8.65;;
26157;SDS011;67284;44.782;10.282;2023-08-24T08:52:14;10.98;;;8.60;;
26157;SDS011;67284;44.782;10.282;2023-08-24T08:57:06;12.60;;;9.48;;
26157;SDS011;67284;44.782;10.282;2023-08-24T09:02:00;10.98;;;9.00;;
26157;SDS011;67284;44.782;10.282;2023-08-24T09:06:52;10.48;;;9.20;;
26157;SDS011;67284;44.782;10.282;2023-08-24T09:11:45;9.68;;;8.30;;
26157;SDS011;67284;44.782;10.282;2023-08-24T09:16:39;12.82;;;7.88;;
26157;SDS011;67284;44.782;10.282;2023-08-24T09:21:31;11.05;;;8.32;;
26157;SDS011;67284;44.782;10.282;2023-08-24T09:26:30;11.05;;;7.70;;
26157;SDS011;67284;44.782;10.282;2023-08-24T09:31:23;10.40;;;8.35;;
26157;SDS011;67284;44.782;10.282;2023-08-24T09:36:27;8.90;;;7.45;;
26157;SDS011;67284;44.782;10.282;2023-08-24T09:41:22;9.93;;;7.97;;
26157;SDS011;67284;44.782;10.282;2023-08-24T09:46:18;12.27;;;8.02;;
26157;SDS011;67284;44.782;10.282;2023-08-24T09:51:10;8.02;;;7.22;;
26157;SDS011;67284;44.782;10.282;2023-08-24T09:56:04;7.78;;;6.97;;
26157;SDS011;67284;44.782;10.282;2023-08-24T10:00:58;8.18;;;7.38;;
26157;SDS011;67284;44.782;10.282;2023-08-24T10:05:51;8.10;;;7.32;;
26157;SDS011;67284;44.782;10.282;2023-08-24T10:10:53;7.18;;;6.28;;
26157;SDS011;67284;44.782;10.282;2023-08-24T10:15:50;11.43;;;7.57;;
26157;SDS011;67284;44.782;10.282;2023-08-24T10:20:42;10.48;;;7.65;;
26157;SDS011;67284;44.782;10.282;2023-08-24T10:25:35;9.35;;;7.40;;
26157;SDS011;67284;44.782;10.282;2023-08-24T10:30:28;9.35;;;6.78;;
26157;SDS011;67284;44.782;10.282;2023-08-24T10:35:22;9.75;;;7.72;;
26157;SDS011;67284;44.782;10.282;2023-08-24T10:40:14;7.68;;;6.97;;
26157;SDS011;67284;44.782;10.282;2023-08-24T10:45:23;8.85;;;7.35;;
26157;SDS011;67284;44.782;10.282;2023-08-24T10:50:15;9.80;;;7.18;;
26157;SDS011;67284;44.782;10.282;2023-08-24T10:55:26;7.95;;;7.15;;
26157;SDS011;67284;44.782;10.282;2023-08-24T11:00:20;7.93;;;6.43;;
26157;SDS011;67284;44.782;10.282;2023-08-24T11:10:11;9.75;;;7.18;;
26157;SDS011;67284;44.782;10.282;2023-08-24T11:15:04;8.30;;;6.97;;
26157;SDS011;67284;44.782;10.282;2023-08-24T11:20:00;6.80;;;6.10;;
26157;SDS011;67284;44.782;10.282;2023-08-24T11:25:00;9.05;;;6.78;;
26157;SDS011;67284;44.782;10.282;2023-08-24T11:29:59;7.00;;;6.30;;
26157;SDS011;67284;44.782;10.282;2023-08-24T11:34:52;6.68;;;6.03;;
26157;SDS011;67284;44.782;10.282;2023-08-24T11:39:45;9.40;;;6.70;;
26157;SDS011;67284;44.782;10.282;2023-08-24T11:44:49;8.95;;;7.10;;
26157;SDS011;67284;44.782;10.282;2023-08-24T11:49:42;7.05;;;6.32;;
26157;SDS011;67284;44.782;10.282;2023-08-24T11:54:38;7.32;;;6.05;;
26157;SDS011;67284;44.782;10.282;2023-08-24T11:59:30;7.18;;;5.93;;
26157;SDS011;67284;44.782;10.282;2023-08-24T12:04:22;7.07;;;6.35;;
26157;SDS011;67284;44.782;10.282;2023-08-24T12:09:14;7.80;;;5.68;;
26157;SDS011;67284;44.782;10.282;2023-08-24T12:14:07;7.20;;;5.65;;
26157;SDS011;67284;44.782;10.282;2023-08-24T12:19:02;8.50;;;5.90;;
26157;SDS011;67284;44.782;10.282;2023-08-24T12:24:03;27.35;;;6.35;;
26157;SDS011;67284;44.782;10.282;2023-08-24T12:29:02;8.70;;;5.28;;
26157;SDS011;67284;44.782;10.282;2023-08-24T12:33:58;11.90;;;6.05;;
26157;SDS011;67284;44.782;10.282;2023-08-24T12:38:53;6.18;;;5.40;;
26157;SDS011;67284;44.782;10.282;2023-08-24T12:43:45;7.20;;;5.65;;
26157;SDS011;67284;44.782;10.282;2023-08-24T12:48:38;5.32;;;4.82;;
26157;SDS011;67284;44.782;10.282;2023-08-24T12:53:29;5.82;;;5.28;;
26157;SDS011;67284;44.782;10.282;2023-08-24T12:58:21;5.60;;;5.05;;
26157;SDS011;67284;44.782;10.282;2023-08-24T13:03:14;6.03;;;4.85;;
26157;SDS011;67284;44.782;10.282;2023-08-24T13:08:06;5.68;;;4.50;;
26157;SDS011;67284;44.782;10.282;2023-08-24T13:12:57;5.25;;;4.80;;
26157;SDS011;67284;44.782;10.282;2023-08-24T13:17:49;5.38;;;4.88;;
26157;SDS011;67284;44.782;10.282;2023-08-24T13:22:42;5.03;;;4.55;;
26157;SDS011;67284;44.782;10.282;2023-08-24T13:27:34;6.07;;;4.57;;
26157;SDS011;67284;44.782;10.282;2023-08-24T13:32:26;5.95;;;4.30;;
26157;SDS011;67284;44.782;10.282;2023-08-24T13:37:18;5.75;;;4.53;;
26157;SDS011;67284;44.782;10.282;2023-08-24T13:42:10;4.97;;;4.45;;
26157;SDS011;67284;44.782;10.282;2023-08-24T13:47:01;7.03;;;4.88;;
26157;SDS011;67284;44.782;10.282;2023-08-24T13:51:53;5.72;;;4.63;;
26157;SDS011;67284;44.782;10.282;2023-08-24T13:56:46;5.03;;;4.38;;
26157;SDS011;67284;44.782;10.282;2023-08-24T14:01:38;4.70;;;3.90;;
26157;SDS011;67284;44.782;10.282;2023-08-24T14:06:31;4.63;;;4.10;;
26157;SDS011;67284;44.782;10.282;2023-08-24T14:11:27;7.47;;;5.07;;
26157;SDS011;67284;44.782;10.282;2023-08-24T14:16:19;5.28;;;3.90;;
26157;SDS011;67284;44.782;10.282;2023-08-24T14:21:12;4.75;;;4.35;;
26157;SDS011;67284;44.782;10.282;2023-08-24T14:26:06;4.63;;;4.20;;
26157;SDS011;67284;44.782;10.282;2023-08-24T14:30:58;6.13;;;3.95;;
26157;SDS011;67284;44.782;10.282;2023-08-24T14:35:51;6.50;;;4.25;;
26157;SDS011;67284;44.782;10.282;2023-08-24T14:40:43;4.93;;;3.83;;
26157;SDS011;67284;44.782;10.282;2023-08-24T14:45:35;6.90;;;3.90;;
26157;SDS011;67284;44.782;10.282;2023-08-24T14:55:25;5.05;;;4.00;;
26157;SDS011;67284;44.782;10.282;2023-08-24T15:00:17;7.32;;;4.10;;
26157;SDS011;67284;44.782;10.282;2023-08-24T15:05:10;5.38;;;3.80;;
26157;SDS011;67284;44.782;10.282;2023-08-24T15:10:02;4.20;;;3.80;;
26157;SDS011;67284;44.782;10.282;2023-08-24T15:15:01;4.53;;;4.15;;
26157;SDS011;67284;44.782;10.282;2023-08-24T15:19:55;6.43;;;4.30;;
26157;SDS011;67284;44.782;10.282;2023-08-24T15:24:48;4.10;;;3.65;;
26157;SDS011;67284;44.782;10.282;2023-08-24T15:29:40;4.40;;;3.60;;
26157;SDS011;67284;44.782;10.282;2023-08-24T15:34:32;4.45;;;4.05;;
26157;SDS011;67284;44.782;10.282;2023-08-24T15:39:24;6.03;;;4.13;;
26157;SDS011;67284;44.782;10.282;2023-08-24T15:44:16;6.00;;;4.55;;
26157;SDS011;67284;44.782;10.282;2023-08-24T15:49:08;4.78;;;4.20;;
26157;SDS011;67284;44.782;10.282;2023-08-24T15:54:00;10.43;;;4.75;;
26157;SDS011;67284;44.782;10.282;2023-08-24T15:58:52;5.32;;;4.60;;
26157;SDS011;67284;44.782;10.282;2023-08-24T16:03:44;5.50;;;5.00;;
26157;SDS011;67284;44.782;10.282;2023-08-24T16:08:36;6.85;;;4.97;;
26157;SDS011;67284;44.782;10.282;2023-08-24T16:13:28;10.35;;;4.85;;
26157;SDS011;67284;44.782;10.282;2023-08-24T16:18:24;5.38;;;4.88;;
26157;SDS011;67284;44.782;10.282;2023-08-24T16:23:16;5.78;;;5.18;;
26157;SDS011;67284;44.782;10.282;2023-08-24T16:28:08;6.90;;;4.78;;
26157;SDS011;67284;44.782;10.282;2023-08-24T16:33:00;5.68;;;4.75;;
26157;SDS011;67284;44.782;10.282;2023-08-24T16:37:52;6.18;;;5.60;;
26157;SDS011;67284;44.782;10.282;2023-08-24T16:42:44;7.05;;;5.28;;
26157;SDS011;67284;44.782;10.282;2023-08-24T16:47:36;11.20;;;5.82;;
26157;SDS011;67284;44.782;10.282;2023-08-24T16:52:28;6.88;;;5.07;;
26157;SDS011;67284;44.782;10.282;2023-08-24T16:57:19;8.13;;;5.13;;
26157;SDS011;67284;44.782;10.282;2023-08-24T17:02:11;9.65;;;5.00;;
26157;SDS011;67284;44.782;10.282;2023-08-24T17:07:06;6.60;;;5.10;;
26157;SDS011;67284;44.782;10.282;2023-08-24T17:11:58;5.55;;;5.00;;
26157;SDS011;67284;44.782;10.282;2023-08-24T17:16:51;5.75;;;5.15;;
26157;SDS011;67284;44.782;10.282;2023-08-24T17:21:45;6.00;;;5.00;;
26157;SDS011;67284;44.782;10.282;2023-08-24T17:26:36;5.82;;;5.15;;
26157;SDS011;67284;44.782;10.282;2023-08-24T17:31:29;8.00;;;5.22;;
26157;SDS011;67284;44.782;10.282;2023-08-24T17:36:21;5.88;;;5.30;;
26157;SDS011;67284;44.782;10.282;2023-08-24T17:41:13;7.03;;;5.28;;
26157;SDS011;67284;44.782;10.282;2023-08-24T17:46:05;6.72;;;5.22;;
26157;SDS011;67284;44.782;10.282;2023-08-24T17:50:58;5.90;;;5.18;;
26157;SDS011;67284;44.782;10.282;2023-08-24T17:55:54;5.50;;;4.90;;
26157;SDS011;67284;44.782;10.282;2023-08-24T18:00:46;10.35;;;5.50;;
26157;SDS011;67284;44.782;10.282;2023-08-24T18:05:38;7.53;;;5.72;;
26157;SDS011;67284;44.782;10.282;2023-08-24T18:10:32;7.50;;;5.45;;
26157;SDS011;67284;44.782;10.282;2023-08-24T18:15:24;6.93;;;5.35;;
26157;SDS011;67284;44.782;10.282;2023-08-24T18:20:24;9.65;;;5.78;;
26157;SDS011;67284;44.782;10.282;2023-08-24T18:25:16;6.00;;;5.38;;
26157;SDS011;67284;44.782;10.282;2023-08-24T18:30:08;9.43;;;5.93;;
26157;SDS011;67284;44.782;10.282;2023-08-24T18:35:00;8.32;;;5.78;;
26157;SDS011;67284;44.782;10.282;2023-08-24T18:39:52;9.75;;;6.72;;
26157;SDS011;67284;44.782;10.282;2023-08-24T18:44:44;11.05;;;8.27;;
26157;SDS011;67284;44.782;10.282;2023-08-24T18:49:36;7.63;;;6.75;;
26157;SDS011;67284;44.782;10.282;2023-08-24T18:54:28;10.00;;;7.85;;
26157;SDS011;67284;44.782;10.282;2023-08-24T18:59:21;7.53;;;6.65;;
26157;SDS011;67284;44.782;10.282;2023-08-24T19:04:14;7.97;;;7.00;;
26157;SDS011;67284;44.782;10.282;2023-08-24T19:09:05;8.60;;;6.88;;
26157;SDS011;67284;44.782;10.282;2023-08-24T19:13:57;12.85;;;7.32;;
26157;SDS011;67284;44.782;10.282;2023-08-24T19:18:49;14.15;;;7.40;;
26157;SDS011;67284;44.782;10.282;2023-08-24T19:23:41;10.52;;;7.40;;
26157;SDS011;67284;44.782;10.282;2023-08-24T19:28:33;11.73;;;7.68;;
26157;SDS011;67284;44.782;10.282;2023-08-24T19:33:25;9.48;;;6.40;;
26157;SDS011;67284;44.782;10.282;2023-08-24T19:38:17;8.60;;;7.47;;
26157;SDS011;67284;44.782;10.282;2023-08-24T19:43:09;10.80;;;7.22;;
26157;SDS011;67284;44.782;10.282;2023-08-24T19:48:01;10.90;;;7.32;;
26157;SDS011;67284;44.782;10.282;2023-08-24T19:52:57;9.98;;;7.00;;
26157;SDS011;67284;44.782;10.282;2023-08-24T19:57:50;7.93;;;6.47;;
26157;SDS011;67284;44.782;10.282;2023-08-24T20:02:43;8.63;;;6.93;;
26157;SDS011;67284;44.782;10.282;2023-08-24T20:07:35;8.50;;;7.22;;
26157;SDS011;67284;44.782;10.282;2023-08-24T20:12:27;10.88;;;7.15;;
26157;SDS011;67284;44.782;10.282;2023-08-24T20:17:19;12.60;;;7.28;;
26157;SDS011;67284;44.782;10.282;2023-08-24T20:22:11;13.73;;;6.90;;
26157;SDS011;67284;44.782;10.282;2023-08-24T20:27:03;15.07;;;8.05;;
26157;SDS011;67284;44.782;10.282;2023-08-24T20:31:55;12.52;;;6.50;;
26157;SDS011;67284;44.782;10.282;2023-08-24T20:36:47;8.63;;;6.88;;
26157;SDS011;67284;44.782;10.282;2023-08-24T20:41:39;15.57;;;8.43;;
26157;SDS011;67284;44.782;10.282;2023-08-24T20:46:31;11.20;;;7.93;;
26157;SDS011;67284;44.782;10.282;2023-08-24T20:51:23;8.93;;;8.02;;
26157;SDS011;67284;44.782;10.282;2023-08-24T20:56:16;8.40;;;7.38;;
26157;SDS011;67284;44.782;10.282;2023-08-24T21:01:08;9.18;;;6.72;;
26157;SDS011;67284;44.782;10.282;2023-08-24T21:06:00;12.20;;;6.85;;
26157;SDS011;67284;44.782;10.282;2023-08-24T21:10:52;9.95;;;6.28;;
26157;SDS011;67284;44.782;10.282;2023-08-24T21:15:46;10.75;;;6.63;;
26157;SDS011;67284;44.782;10.282;2023-08-24T21:20:38;9.73;;;7.40;;
26157;SDS011;67284;44.782;10.282;2023-08-24T21:25:30;9.65;;;6.78;;
26157;SDS011;67284;44.782;10.282;2023-08-24T21:30:22;7.05;;;6.35;;
26157;SDS011;67284;44.782;10.282;2023-08-24T21:35:16;9.10;;;6.53;;
26157;SDS011;67284;44.782;10.282;2023-08-24T21:40:08;10.48;;;6.95;;
26157;SDS011;67284;44.782;10.282;2023-08-24T21:45:00;10.85;;;6.70;;
26157;SDS011;67284;44.782;10.282;2023-08-24T21:49:52;9.10;;;6.63;;
26157;SDS011;67284;44.782;10.282;2023-08-24T21:54:44;6.68;;;6.03;;
26157;SDS011;67284;44.782;10.282;2023-08-24T21:59:36;13.45;;;7.60;;
26157;SDS011;67284;44.782;10.282;2023-08-24T22:04:28;10.25;;;7.25;;
26157;SDS011;67284;44.782;10.282;2023-08-24T22:09:20;16.45;;;6.60;;
26157;SDS011;67284;44.782;10.282;2023-08-24T22:14:11;9.68;;;6.82;;
26157;SDS011;67284;44.782;10.282;2023-08-24T22:19:03;11.60;;;7.80;;
26157;SDS011;67284;44.782;10.282;2023-08-24T22:24:04;11.10;;;6.45;;
26157;SDS011;67284;44.782;10.282;2023-08-24T22:28:56;12.02;;;7.10;;
26157;SDS011;67284;44.782;10.282;2023-08-24T22:33:48;11.45;;;6.28;;
26157;SDS011;67284;44.782;10.282;2023-08-24T22:38:39;10.20;;;7.75;;
26157;SDS011;67284;44.782;10.282;2023-08-24T22:43:32;13.60;;;8.75;;
26157;SDS011;67284;44.782;10.282;2023-08-24T22:48:23;16.23;;;8.65;;
26157;SDS011;67284;44.782;10.282;2023-08-24T22:53:15;10.35;;;8.30;;
26157;SDS011;67284;44.782;10.282;2023-08-24T22:58:07;14.15;;;8.18;;
26157;SDS011;67284;44.782;10.282;2023-08-24T23:02:59;10.52;;;8.52;;
26157;SDS011;67284;44.782;10.282;2023-08-24T23:07:51;11.02;;;8.40;;
26157;SDS011;67284;44.782;10.282;2023-08-24T23:12:43;8.65;;;7.63;;
26157;SDS011;67284;44.782;10.282;2023-08-24T23:17:35;11.55;;;8.25;;
26157;SDS011;67284;44.782;10.282;2023-08-24T23:22:26;10.88;;;7.03;;
26157;SDS011;67284;44.782;10.282;2023-08-24T23:27:18;8.52;;;7.22;;
26157;SDS011;67284;44.782;10.282;2023-08-24T23:32:10;8.43;;;7.47;;
26157;SDS011;67284;44.782;10.282;2023-08-24T23:37:02;9.75;;;6.82;;
26157;SDS011;67284;44.782;10.282;2023-08-24T23:41:54;11.02;;;7.50;;
26157;SDS011;67284;44.782;10.282;2023-08-24T23:46:46;8.65;;;7.47;;
26157;SDS011;67284;44.782;10.282;2023-08-24T23:51:38;10.88;;;7.07;;
26157;SDS011;67284;44.782;10.282;2023-08-24T23:56:29;8.05;;;6.57;;
